Time;durP1;ratioP1;P1;durP2;ratioP2;P2;SDS_P1;SDS_P2;PMS_P1;PMS_P2;Temp;Humidity;BMP_temperature;BMP_pressure;BME280_temperature;BME280_humidity;BME280_pressure;Samples;Min_cycle;Max_cycle;Signal;HPM_P1;HPM_P2
2024/01/24 00:01:15;;;;;;;3.92;1.50;;;26.30;63.30;;;;;;5067569;28;20047;-80
2024/01/24 00:03:42;;;;;;;2.78;1.10;;;26.30;62.90;;;;;;5075930;28;20111;-87
2024/01/24 00:06:09;;;;;;;6.60;1.60;;;26.30;62.30;;;;;;5072197;28;20047;-81
2024/01/24 00:08:37;;;;;;;6.55;1.55;;;26.40;62.50;;;;;;5072161;28;20036;-80
2024/01/24 00:11:04;;;;;;;5.65;1.50;;;26.50;63.00;;;;;;5076262;28;20063;-80
2024/01/24 00:13:32;;;;;;;8.50;1.42;;;26.60;62.80;;;;;;5071127;28;20059;-80
2024/01/24 00:15:59;;;;;;;6.13;1.73;;;26.70;62.70;;;;;;5050904;28;20044;-79
2024/01/24 00:18:27;;;;;;;5.43;1.75;;;26.70;63.00;;;;;;5043487;28;20025;-80
2024/01/24 00:20:54;;;;;;;5.90;1.45;;;26.80;63.00;;;;;;5034323;28;20021;-80
2024/01/24 00:23:23;;;;;;;6.20;1.65;;;26.80;63.30;;;;;;5016976;28;20018;-87
2024/01/24 00:25:50;;;;;;;4.93;1.67;;;26.90;63.20;;;;;;5021603;28;20397;-81
2024/01/24 00:28:18;;;;;;;6.22;1.65;;;26.90;63.00;;;;;;5022723;28;20099;-84
2024/01/24 00:30:46;;;;;;;5.13;1.52;;;27.00;63.00;;;;;;5023147;28;20497;-87
2024/01/24 00:33:16;;;;;;;10.77;2.10;;;27.00;62.40;;;;;;5024514;28;20025;-80
2024/01/24 00:35:43;;;;;;;6.85;2.15;;;27.10;62.70;;;;;;5026186;28;20025;-84
2024/01/24 00:38:10;;;;;;;6.32;1.60;;;27.10;63.00;;;;;;5025565;28;20045;-80
2024/01/24 00:40:38;;;;;;;9.60;1.85;;;27.20;62.70;;;;;;5019826;28;20026;-85
2024/01/24 00:43:06;;;;;;;8.68;1.67;;;27.10;62.70;;;;;;5020869;28;20492;-82
2024/01/24 00:45:34;;;;;;;7.90;1.80;;;27.20;62.60;;;;;;5027065;28;20028;-86
2024/01/24 00:48:01;;;;;;;8.77;1.40;;;27.20;62.90;;;;;;5027179;28;20358;-81
2024/01/24 00:50:28;;;;;;;8.13;1.67;;;27.20;62.40;;;;;;5021306;28;20044;-80
2024/01/24 00:52:56;;;;;;;6.65;1.67;;;27.20;62.30;;;;;;5022852;28;20037;-80
2024/01/24 00:55:26;;;;;;;10.38;1.92;;;27.20;62.40;;;;;;5035697;28;20029;-77
2024/01/24 00:57:54;;;;;;;11.30;2.08;;;27.20;62.20;;;;;;5025491;28;20057;-80
2024/01/24 01:00:22;;;;;;;7.10;1.67;;;27.20;62.30;;;;;;5028729;28;20056;-80
2024/01/24 01:02:49;;;;;;;6.72;1.83;;;27.30;61.90;;;;;;5019542;28;20040;-80
2024/01/24 01:05:17;;;;;;;5.95;1.80;;;27.30;61.60;;;;;;5023807;28;20021;-80
2024/01/24 01:07:44;;;;;;;5.70;1.58;;;27.30;61.80;;;;;;5027681;28;20096;-83
2024/01/24 01:10:12;;;;;;;7.20;1.80;;;27.40;62.00;;;;;;5025355;28;20038;-80
2024/01/24 01:12:39;;;;;;;6.07;1.50;;;27.40;61.40;;;;;;5021616;28;20040;-79
2024/01/24 01:15:07;;;;;;;6.80;1.75;;;27.40;61.30;;;;;;5023334;28;20033;-81
2024/01/24 01:17:34;;;;;;;7.78;1.70;;;27.40;61.60;;;;;;5059124;28;20041;-80
2024/01/24 01:20:03;;;;;;;4.95;1.52;;;27.40;61.60;;;;;;5064534;28;20128;-80
2024/01/24 01:22:31;;;;;;;6.80;1.48;;;27.40;61.60;;;;;;5059555;28;20037;-79
2024/01/24 01:24:58;;;;;;;7.57;1.60;;;27.50;61.90;;;;;;5064637;28;20019;-80
2024/01/24 01:27:25;;;;;;;10.45;1.88;;;27.50;61.70;;;;;;5071693;28;20752;-79
2024/01/24 01:29:53;;;;;;;4.57;1.50;;;27.50;61.80;;;;;;5065861;28;20040;-79
2024/01/24 01:32:20;;;;;;;6.88;2.00;;;27.50;61.50;;;;;;5066330;28;20020;-79
2024/01/24 01:34:47;;;;;;;10.48;1.77;;;27.50;61.40;;;;;;5065357;28;20537;-79
2024/01/24 01:37:15;;;;;;;5.65;1.58;;;27.50;61.30;;;;;;5072553;28;20021;-80
2024/01/24 01:39:42;;;;;;;8.57;1.92;;;27.50;61.40;;;;;;5071275;28;20017;-79
2024/01/24 01:42:10;;;;;;;5.80;1.40;;;27.60;60.60;;;;;;5048234;28;20574;-80
2024/01/24 01:44:46;;;;;;;8.77;1.83;;;27.60;60.90;;;;;;5066432;28;20036;-81
2024/01/24 01:47:16;;;;;;;5.70;1.42;;;27.60;60.90;;;;;;5063342;28;20382;-81
2024/01/24 01:49:44;;;;;;;6.63;1.73;;;27.60;61.00;;;;;;5069352;28;20032;-81
2024/01/24 01:52:12;;;;;;;7.30;1.80;;;27.70;61.10;;;;;;5068411;28;20099;-81
2024/01/24 01:54:42;;;;;;;5.38;1.52;;;27.60;61.30;;;;;;5069742;28;20396;-83
2024/01/24 01:57:11;;;;;;;11.38;1.77;;;27.60;61.30;;;;;;5067913;28;20103;-81
2024/01/24 01:59:42;;;;;;;7.63;1.75;;;27.70;61.30;;;;;;5062311;28;20125;-80
2024/01/24 02:02:11;;;;;;;8.35;1.98;;;27.70;61.00;;;;;;5062110;28;20036;-80
2024/01/24 02:04:39;;;;;;;5.03;1.42;;;27.70;60.70;;;;;;5058891;28;20025;-81
2024/01/24 02:07:06;;;;;;;5.85;1.80;;;27.60;60.80;;;;;;5063746;28;20017;-80
2024/01/24 02:09:34;;;;;;;6.13;1.77;;;27.60;60.90;;;;;;5070756;28;20040;-84
2024/01/24 02:12:02;;;;;;;4.53;1.60;;;27.60;61.20;;;;;;5061839;28;20045;-84
2024/01/24 02:14:30;;;;;;;5.15;1.52;;;27.60;61.20;;;;;;5066313;28;20040;-80
2024/01/24 02:16:57;;;;;;;5.25;1.50;;;27.60;61.10;;;;;;5072181;28;20500;-80
2024/01/24 02:19:27;;;;;;;7.95;1.90;;;27.50;61.20;;;;;;5073171;28;20025;-83
2024/01/24 02:21:55;;;;;;;7.72;1.52;;;27.40;61.00;;;;;;5058615;28;20376;-81
2024/01/24 02:24:23;;;;;;;6.10;1.60;;;27.40;61.20;;;;;;5068391;28;20025;-82
2024/01/24 02:26:50;;;;;;;5.20;1.75;;;27.30;61.40;;;;;;5072155;28;20044;-81
2024/01/24 02:29:19;;;;;;;4.00;1.60;;;27.30;61.50;;;;;;5077087;28;20040;-87
2024/01/24 02:31:47;;;;;;;7.53;2.00;;;27.20;61.60;;;;;;5077313;28;20021;-80
2024/01/24 02:34:14;;;;;;;5.68;1.83;;;27.30;61.80;;;;;;5081417;28;20122;-79
2024/01/24 02:36:42;;;;;;;7.78;1.95;;;27.20;62.10;;;;;;5065057;28;20517;-84
2024/01/24 02:39:10;;;;;;;6.38;2.15;;;27.20;62.40;;;;;;5067197;28;20100;-79
2024/01/24 02:41:40;;;;;;;7.25;1.73;;;27.20;62.40;;;;;;5073307;28;20032;-79
2024/01/24 02:44:10;;;;;;;6.30;1.92;;;27.20;62.70;;;;;;5064092;28;20100;-80
2024/01/24 02:46:37;;;;;;;10.57;2.00;;;27.20;62.80;;;;;;5078551;28;20498;-80
2024/01/24 02:49:05;;;;;;;8.18;1.90;;;27.20;63.00;;;;;;5073816;28;20044;-88
2024/01/24 02:51:32;;;;;;;7.13;1.88;;;27.30;63.10;;;;;;5065618;28;20021;-87
2024/01/24 02:53:59;;;;;;;8.00;1.90;;;27.20;63.30;;;;;;5071792;28;20024;-81
2024/01/24 02:56:27;;;;;;;8.95;2.05;;;27.30;63.20;;;;;;5076421;28;20073;-80
2024/01/24 02:58:54;;;;;;;7.40;2.08;;;27.30;63.50;;;;;;5061000;28;20116;-81
2024/01/24 03:01:22;;;;;;;4.63;1.85;;;27.40;63.40;;;;;;5060648;28;20033;-84
2024/01/24 03:03:52;;;;;;;8.75;2.53;;;27.40;63.40;;;;;;5066991;28;20451;-81
2024/01/24 03:06:20;;;;;;;8.85;2.40;;;27.50;63.30;;;;;;5064327;28;20032;-81
2024/01/24 03:08:54;;;;;;;8.32;1.80;;;27.50;63.00;;;;;;5063607;28;20509;-78
2024/01/24 03:11:22;;;;;;;5.22;1.73;;;27.50;63.10;;;;;;5058488;28;20028;-80
2024/01/24 03:13:49;;;;;;;6.22;2.05;;;27.60;63.10;;;;;;5065359;28;20094;-81
2024/01/24 03:16:17;;;;;;;7.45;1.75;;;27.70;63.10;;;;;;5062448;28;20036;-80
2024/01/24 03:18:45;;;;;;;5.13;1.65;;;27.80;62.90;;;;;;5063707;28;20020;-81
2024/01/24 03:21:17;;;;;;;8.00;1.88;;;27.80;62.10;;;;;;5062150;28;20403;-91
2024/01/24 03:23:45;;;;;;;6.05;1.83;;;27.90;62.10;;;;;;5063483;28;20470;-81
2024/01/24 03:26:16;;;;;;;4.90;1.88;;;28.00;61.80;;;;;;5068861;28;20052;-82
2024/01/24 03:28:43;;;;;;;6.72;1.73;;;28.00;61.50;;;;;;5068315;28;20025;-81
2024/01/24 03:31:11;;;;;;;7.72;1.90;;;28.00;61.70;;;;;;5068550;28;20055;-82
2024/01/24 03:33:38;;;;;;;8.05;2.00;;;28.00;61.50;;;;;;5055811;28;20036;-80
2024/01/24 03:36:06;;;;;;;4.88;1.55;;;28.10;61.30;;;;;;5058833;28;20051;-81
2024/01/24 03:38:34;;;;;;;7.00;1.60;;;28.00;61.40;;;;;;5068669;28;20052;-81
2024/01/24 03:41:01;;;;;;;5.90;1.90;;;28.00;61.70;;;;;;5068605;28;20415;-81
2024/01/24 03:43:29;;;;;;;8.65;2.20;;;28.00;61.60;;;;;;5063413;28;20052;-82
2024/01/24 03:45:56;;;;;;;6.50;1.70;;;28.00;61.50;;;;;;5072904;28;20506;-81
2024/01/24 03:48:24;;;;;;;6.00;1.88;;;28.00;61.40;;;;;;5059640;28;20068;-81
2024/01/24 03:50:51;;;;;;;8.15;1.80;;;28.00;61.60;;;;;;5072829;28;20020;-82
2024/01/24 03:53:18;;;;;;;9.23;1.80;;;28.00;61.30;;;;;;5060348;28;20039;-82
2024/01/24 03:55:46;;;;;;;4.40;1.67;;;28.10;61.70;;;;;;5062650;28;20028;-82
2024/01/24 03:58:13;;;;;;;6.13;2.00;;;28.00;61.30;;;;;;5066858;28;20467;-81
2024/01/24 04:00:41;;;;;;;8.85;2.00;;;28.10;60.70;;;;;;5061875;28;20127;-82
2024/01/24 04:03:08;;;;;;;5.32;1.50;;;28.30;60.70;;;;;;5064038;28;20441;-85
2024/01/24 04:05:36;;;;;;;6.38;1.95;;;28.30;60.90;;;;;;5065885;28;20077;-81
2024/01/24 04:08:03;;;;;;;7.07;1.90;;;28.30;61.00;;;;;;5068819;28;20258;-80
2024/01/24 04:10:30;;;;;;;6.13;1.70;;;28.30;61.10;;;;;;5064405;28;20017;-81
2024/01/24 04:12:58;;;;;;;9.20;1.90;;;28.30;60.80;;;;;;5060042;28;20021;-80
2024/01/24 04:15:27;;;;;;;8.63;1.98;;;28.30;60.90;;;;;;5064699;28;20119;-78
2024/01/24 04:17:54;;;;;;;4.93;1.60;;;28.30;60.70;;;;;;5076021;28;20078;-77
2024/01/24 04:20:21;;;;;;;5.43;2.10;;;28.30;60.80;;;;;;5065571;28;20021;-78
2024/01/24 04:22:49;;;;;;;5.20;1.52;;;28.30;61.20;;;;;;5080216;28;20047;-77
2024/01/24 04:25:16;;;;;;;6.53;2.25;;;28.30;61.30;;;;;;5080934;28;20034;-77
2024/01/24 04:27:43;;;;;;;8.02;2.42;;;28.30;61.40;;;;;;5073725;28;20055;-79
2024/01/24 04:30:12;;;;;;;7.03;1.77;;;28.30;61.50;;;;;;5082190;28;20028;-82
2024/01/24 04:32:40;;;;;;;5.07;1.65;;;28.50;61.40;;;;;;5086465;28;20020;-77
2024/01/24 04:35:08;;;;;;;5.80;1.70;;;28.60;61.40;;;;;;5078895;28;20020;-77
2024/01/24 04:37:35;;;;;;;8.65;1.67;;;28.70;61.10;;;;;;5085992;28;20162;-84
2024/01/24 04:40:03;;;;;;;9.65;2.00;;;28.80;60.70;;;;;;5065172;28;20450;-78
2024/01/24 04:42:31;;;;;;;5.10;1.40;;;28.70;60.80;;;;;;5074276;28;20028;-78
2024/01/24 04:44:58;;;;;;;4.25;1.50;;;28.70;60.80;;;;;;5087138;28;20020;-78
2024/01/24 04:47:25;;;;;;;4.78;1.40;;;28.70;60.90;;;;;;5075358;28;20035;-78
2024/01/24 04:49:53;;;;;;;6.30;1.65;;;28.60;61.10;;;;;;5074462;28;20513;-78
2024/01/24 04:52:20;;;;;;;5.70;1.95;;;28.60;61.20;;;;;;5084511;28;20027;-78
2024/01/24 04:54:48;;;;;;;5.97;1.80;;;28.50;61.30;;;;;;5089852;28;20035;-83
2024/01/24 04:57:15;;;;;;;5.18;1.88;;;28.50;61.40;;;;;;5079460;28;20016;-78
2024/01/24 04:59:42;;;;;;;5.20;1.88;;;28.40;61.60;;;;;;5080925;28;20462;-78
2024/01/24 05:02:10;;;;;;;5.88;1.88;;;28.40;61.70;;;;;;5080701;28;20104;-77
2024/01/24 05:04:37;;;;;;;9.40;1.88;;;28.40;61.90;;;;;;5093076;28;20045;-86
2024/01/24 05:07:05;;;;;;;12.02;2.40;;;28.30;62.00;;;;;;5085080;28;20036;-78
2024/01/24 05:09:33;;;;;;;7.82;2.30;;;28.30;62.30;;;;;;5090286;28;20414;-78
2024/01/24 05:12:00;;;;;;;8.40;2.30;;;28.20;62.80;;;;;;5082133;28;20082;-78
2024/01/24 05:14:28;;;;;;;11.30;2.42;;;28.10;63.00;;;;;;5085158;28;20048;-78
2024/01/24 05:16:55;;;;;;;7.45;2.13;;;28.00;63.60;;;;;;5082798;28;20175;-78
2024/01/24 05:19:23;;;;;;;10.70;2.20;;;28.00;63.70;;;;;;5086364;28;20032;-78
2024/01/24 05:21:50;;;;;;;9.63;2.28;;;27.90;64.10;;;;;;5074421;28;20024;-78
2024/01/24 05:24:17;;;;;;;8.68;2.03;;;27.80;64.30;;;;;;5084486;28;20453;-79
2024/01/24 05:26:46;;;;;;;11.60;2.50;;;27.80;64.50;;;;;;5080909;28;20020;-78
2024/01/24 05:29:13;;;;;;;11.98;2.55;;;27.90;64.80;;;;;;5083052;28;20570;-81
2024/01/24 05:31:41;;;;;;;7.22;2.35;;;27.80;64.80;;;;;;5075556;28;20036;-81
2024/01/24 05:34:08;;;;;;;7.10;2.50;;;27.80;64.80;;;;;;5071761;28;20468;-89
2024/01/24 05:36:39;;;;;;;8.25;2.78;;;27.80;65.10;;;;;;5078247;28;20035;-81
2024/01/24 05:39:06;;;;;;;8.38;2.38;;;27.80;65.10;;;;;;5079695;28;20033;-81
2024/01/24 05:41:38;;;;;;;7.05;2.22;;;27.80;65.10;;;;;;5085213;28;20055;-80
2024/01/24 05:44:05;;;;;;;9.93;2.65;;;27.80;65.10;;;;;;5074442;28;20028;-81
2024/01/24 05:46:32;;;;;;;8.82;2.38;;;27.80;65.20;;;;;;5083272;28;20020;-82
2024/01/24 05:49:00;;;;;;;8.35;2.33;;;27.80;65.30;;;;;;5086767;28;20485;-77
2024/01/24 05:51:27;;;;;;;5.20;2.03;;;27.80;65.50;;;;;;5076425;28;20025;-76
2024/01/24 05:53:55;;;;;;;13.43;2.55;;;27.80;65.60;;;;;;5093571;28;20506;-76
2024/01/24 05:56:22;;;;;;;9.40;2.55;;;27.80;65.70;;;;;;5081626;28;20025;-78
2024/01/24 05:58:50;;;;;;;9.32;2.65;;;27.80;65.80;;;;;;5074768;28;20045;-88
2024/01/24 06:01:17;;;;;;;6.47;2.65;;;27.80;66.00;;;;;;5077355;28;20384;-83
2024/01/24 06:03:44;;;;;;;11.25;3.10;;;27.80;66.20;;;;;;5076651;28;20035;-77
2024/01/24 06:06:12;;;;;;;11.00;3.03;;;27.90;66.40;;;;;;5075522;28;20467;-80
2024/01/24 06:08:39;;;;;;;9.60;3.20;;;27.80;66.40;;;;;;5079906;28;20051;-86
2024/01/24 06:11:09;;;;;;;6.57;2.63;;;27.90;66.50;;;;;;5084288;28;20021;-81
2024/01/24 06:13:36;;;;;;;14.65;2.90;;;27.90;66.60;;;;;;5083651;28;20036;-81
2024/01/24 06:16:04;;;;;;;6.70;2.70;;;27.90;66.80;;;;;;5079757;28;20029;-77
2024/01/24 06:18:31;;;;;;;9.40;3.05;;;27.90;66.80;;;;;;5080918;28;20055;-76
2024/01/24 06:21:02;;;;;;;11.98;3.00;;;27.90;66.80;;;;;;5075506;28;20434;-77
2024/01/24 06:23:29;;;;;;;10.23;3.05;;;27.90;66.60;;;;;;5080973;28;20459;-78
2024/01/24 06:25:56;;;;;;;13.48;2.50;;;27.90;66.20;;;;;;5069737;28;20040;-78
2024/01/24 06:28:24;;;;;;;12.73;3.00;;;28.00;66.00;;;;;;5080570;28;20108;-77
2024/01/24 06:30:54;;;;;;;9.25;2.42;;;28.00;65.90;;;;;;5074198;28;20505;-77
2024/01/24 06:33:22;;;;;;;6.20;2.15;;;28.10;65.90;;;;;;5073734;28;20448;-79
2024/01/24 06:35:49;;;;;;;9.50;2.70;;;28.00;65.90;;;;;;5056723;28;20139;-89
2024/01/24 06:38:17;;;;;;;7.43;2.20;;;28.10;66.00;;;;;;5087352;28;20024;-77
2024/01/24 06:40:44;;;;;;;12.10;2.63;;;28.10;66.20;;;;;;5082000;28;20030;-87
2024/01/24 06:43:14;;;;;;;7.38;2.47;;;28.10;66.20;;;;;;5086463;28;20445;-77
2024/01/24 06:45:41;;;;;;;16.67;3.55;;;28.20;66.40;;;;;;5081873;28;20031;-89
2024/01/24 06:48:09;;;;;;;12.20;3.22;;;28.10;66.70;;;;;;5063844;28;20037;-78
2024/01/24 06:50:36;;;;;;;9.18;2.53;;;28.20;66.90;;;;;;5073371;28;20021;-78
2024/01/24 06:53:05;;;;;;;11.07;2.45;;;28.20;67.00;;;;;;5073708;28;20029;-80
2024/01/24 06:55:33;;;;;;;15.95;3.72;;;28.10;67.20;;;;;;5073283;28;20020;-86
2024/01/24 06:58:00;;;;;;;21.58;3.80;;;28.20;67.20;;;;;;5073042;28;20531;-76
2024/01/24 07:00:29;;;;;;;12.48;3.05;;;28.20;67.30;;;;;;5067208;28;20020;-86
2024/01/24 07:02:57;;;;;;;15.10;3.78;;;28.10;67.40;;;;;;5073074;28;20029;-78
2024/01/24 07:05:24;;;;;;;11.77;3.67;;;28.10;67.40;;;;;;5073514;28;20376;-80
2024/01/24 07:07:52;;;;;;;13.68;3.05;;;28.00;67.40;;;;;;5072979;28;20032;-85
2024/01/24 07:10:19;;;;;;;12.05;3.13;;;28.10;67.50;;;;;;5073658;28;20020;-78
2024/01/24 07:12:47;;;;;;;11.02;2.90;;;28.10;67.50;;;;;;5073072;28;20452;-92
2024/01/24 07:15:15;;;;;;;10.18;3.50;;;28.00;67.50;;;;;;5073245;28;20025;-81
2024/01/24 07:17:44;;;;;;;16.92;4.15;;;28.00;67.70;;;;;;5063269;28;20391;-80
2024/01/24 07:20:13;;;;;;;21.65;5.18;;;28.00;67.80;;;;;;5072299;28;20365;-79
2024/01/24 07:22:40;;;;;;;13.73;4.22;;;28.00;67.90;;;;;;5062934;28;20082;-78
2024/01/24 07:25:08;;;;;;;11.55;3.78;;;27.90;67.90;;;;;;5072497;28;20037;-89
2024/01/24 07:27:36;;;;;;;9.77;3.78;;;27.90;68.00;;;;;;5073165;28;20043;-76
2024/01/24 07:30:04;;;;;;;14.80;3.83;;;27.90;67.90;;;;;;5071828;28;20035;-85
2024/01/24 07:32:32;;;;;;;19.88;4.00;;;27.90;67.80;;;;;;5070567;28;20383;-77
2024/01/24 07:35:02;;;;;;;14.55;3.70;;;27.90;67.90;;;;;;5070690;28;20021;-87
2024/01/24 07:37:30;;;;;;;16.77;5.38;;;27.90;68.00;;;;;;5072001;28;20024;-77
2024/01/24 07:39:57;;;;;;;16.67;4.63;;;27.90;68.10;;;;;;5071687;28;20025;-76
2024/01/24 07:42:24;;;;;;;19.48;5.72;;;27.80;68.00;;;;;;5071795;28;20030;-86
2024/01/24 07:44:52;;;;;;;18.20;5.63;;;27.80;68.00;;;;;;5071901;28;20024;-77
2024/01/24 07:47:22;;;;;;;15.90;4.85;;;27.80;68.10;;;;;;5071461;28;20099;-77
2024/01/24 07:49:49;;;;;;;17.00;4.10;;;27.70;68.20;;;;;;5070892;28;20036;-77
2024/01/24 07:52:17;;;;;;;18.52;4.20;;;27.70;68.30;;;;;;5072058;28;20052;-84
2024/01/24 07:54:44;;;;;;;16.27;3.92;;;27.70;68.40;;;;;;5081951;28;20028;-86
2024/01/24 07:57:12;;;;;;;17.50;3.65;;;27.60;68.60;;;;;;5072061;28;20043;-88
2024/01/24 07:59:39;;;;;;;17.75;3.83;;;27.60;68.70;;;;;;5068692;28;20115;-78
2024/01/24 08:02:07;;;;;;;22.20;5.07;;;27.50;68.70;;;;;;5071476;28;20515;-77
2024/01/24 08:04:34;;;;;;;17.48;4.93;;;27.50;68.90;;;;;;5071442;28;20067;-78
2024/01/24 08:07:01;;;;;;;17.00;3.97;;;27.50;68.80;;;;;;5072008;28;20075;-75
2024/01/24 08:09:29;;;;;;;13.98;3.80;;;27.50;68.80;;;;;;5077670;28;20040;-83
2024/01/24 08:11:56;;;;;;;12.75;3.65;;;27.50;68.80;;;;;;5071886;28;20487;-85
2024/01/24 08:14:23;;;;;;;18.13;4.53;;;27.50;69.00;;;;;;5058655;28;20028;-87
2024/01/24 08:17:08;;;;;;;14.25;3.50;;;27.50;69.10;;;;;;5071859;28;20049;-77
2024/01/24 08:19:36;;;;;;;22.05;4.43;;;27.40;69.20;;;;;;5072076;28;20028;-85
2024/01/24 08:22:03;;;;;;;12.00;3.75;;;27.40;69.40;;;;;;5070433;28;20059;-81
2024/01/24 08:24:31;;;;;;;14.20;3.58;;;27.30;69.40;;;;;;5071442;28;20082;-87
2024/01/24 08:26:59;;;;;;;17.42;4.60;;;27.30;69.40;;;;;;5071895;28;20122;-90
2024/01/24 08:29:26;;;;;;;15.73;4.43;;;27.30;69.60;;;;;;5071846;28;20037;-76
2024/01/24 08:31:54;;;;;;;12.65;4.00;;;27.30;69.70;;;;;;5069272;28;20357;-77
2024/01/24 08:34:22;;;;;;;16.67;4.35;;;27.20;69.70;;;;;;5070907;28;20436;-85
2024/01/24 08:36:49;;;;;;;19.58;4.90;;;27.20;69.90;;;;;;5060925;28;20387;-82
2024/01/24 08:39:17;;;;;;;20.83;4.78;;;27.10;70.10;;;;;;5071021;28;20028;-76
2024/01/24 08:41:44;;;;;;;15.50;4.30;;;27.10;70.40;;;;;;5071639;28;20036;-90
2024/01/24 08:44:12;;;;;;;22.90;5.13;;;27.10;70.40;;;;;;5068553;28;20094;-81
2024/01/24 08:46:39;;;;;;;20.00;4.53;;;27.10;70.50;;;;;;5066714;28;20040;-87
2024/01/24 08:49:06;;;;;;;12.02;3.63;;;27.00;70.70;;;;;;5072376;28;20475;-76
2024/01/24 08:51:34;;;;;;;20.08;4.60;;;27.00;70.70;;;;;;5072984;28;20020;-89
2024/01/24 08:54:02;;;;;;;17.35;4.40;;;27.00;70.70;;;;;;5070310;28;20107;-88
2024/01/24 08:56:29;;;;;;;14.35;3.95;;;27.00;70.70;;;;;;5066498;28;20020;-89
2024/01/24 08:58:56;;;;;;;14.15;3.97;;;26.90;70.80;;;;;;5071889;28;20087;-83
2024/01/24 09:01:25;;;;;;;21.50;4.95;;;26.90;70.90;;;;;;5069439;28;20368;-86
2024/01/24 09:03:53;;;;;;;16.55;4.32;;;26.80;70.90;;;;;;5063993;28;20356;-87
2024/01/24 09:06:21;;;;;;;15.25;4.38;;;26.80;70.90;;;;;;5074034;28;20027;-79
2024/01/24 09:08:52;;;;;;;14.57;4.40;;;26.80;71.00;;;;;;5071679;28;20051;-84
2024/01/24 09:11:20;;;;;;;12.07;3.92;;;26.80;71.00;;;;;;5067384;28;20025;-87
2024/01/24 09:13:49;;;;;;;14.15;3.40;;;26.80;71.00;;;;;;5072370;28;20024;-77
2024/01/24 09:16:16;;;;;;;10.40;3.28;;;26.90;71.00;;;;;;5073000;28;20093;-82
2024/01/24 09:18:44;;;;;;;21.30;4.93;;;26.80;71.00;;;;;;5066113;28;20044;-90
2024/01/24 09:21:12;;;;;;;46.05;6.22;;;26.80;71.10;;;;;;5071645;28;20071;-86
2024/01/24 09:23:39;;;;;;;14.60;3.83;;;26.80;71.10;;;;;;5054346;28;20024;-81
2024/01/24 09:26:07;;;;;;;17.77;4.13;;;26.80;71.30;;;;;;5072189;28;20032;-91
2024/01/24 09:28:34;;;;;;;13.65;3.72;;;26.80;71.20;;;;;;5071658;28;20032;-91
2024/01/24 09:31:01;;;;;;;15.63;3.70;;;26.80;71.10;;;;;;5077214;28;20017;-82
2024/01/24 09:33:29;;;;;;;12.68;3.20;;;26.70;71.10;;;;;;5072669;28;20070;-82
2024/01/24 09:35:56;;;;;;;9.20;3.42;;;26.70;71.10;;;;;;5070447;28;20031;-81
2024/01/24 09:38:23;;;;;;;13.98;3.88;;;26.70;71.00;;;;;;5064698;28;20021;-82
2024/01/24 09:40:55;;;;;;;12.82;3.70;;;26.70;71.00;;;;;;5055817;28;20060;-81
2024/01/24 09:43:26;;;;;;;11.85;4.22;;;26.70;71.00;;;;;;5071797;28;20020;-84
2024/01/24 09:45:56;;;;;;;12.07;3.50;;;26.70;71.00;;;;;;5071661;28;20031;-83
2024/01/24 09:48:24;;;;;;;12.40;3.20;;;26.70;71.00;;;;;;5074652;28;20071;-81
2024/01/24 09:50:52;;;;;;;12.23;3.33;;;26.70;71.00;;;;;;5077421;28;20028;-81
2024/01/24 09:53:21;;;;;;;14.00;3.50;;;26.70;71.00;;;;;;5074641;28;20499;-91
2024/01/24 09:55:49;;;;;;;12.15;3.53;;;26.60;71.00;;;;;;5067204;28;20386;-87
2024/01/24 09:58:16;;;;;;;11.77;3.40;;;26.60;71.10;;;;;;5075898;28;20104;-86
2024/01/24 10:00:44;;;;;;;11.13;3.05;;;26.60;71.10;;;;;;5075569;28;20498;-89
2024/01/24 10:03:12;;;;;;;13.93;3.25;;;26.60;71.10;;;;;;5073060;28;20036;-81
2024/01/24 10:05:43;;;;;;;9.02;3.13;;;26.60;71.10;;;;;;5070876;28;20066;-88
2024/01/24 10:08:11;;;;;;;16.33;4.43;;;26.60;71.20;;;;;;5074076;28;20059;-82
2024/01/24 10:10:39;;;;;;;10.02;3.58;;;26.50;71.30;;;;;;5072079;28;20036;-83
2024/01/24 10:13:07;;;;;;;8.15;3.47;;;26.50;71.30;;;;;;5076348;28;20063;-89
2024/01/24 10:15:37;;;;;;;14.02;3.80;;;26.50;71.40;;;;;;5078052;28;20036;-85
2024/01/24 10:18:07;;;;;;;16.98;3.80;;;26.50;71.50;;;;;;5079130;28;20103;-86
2024/01/24 10:20:34;;;;;;;15.02;3.78;;;26.50;71.60;;;;;;5084782;28;20024;-87
2024/01/24 10:23:01;;;;;;;16.70;3.97;;;26.50;71.60;;;;;;5073523;28;20017;-90
2024/01/24 10:25:30;;;;;;;10.05;3.35;;;26.50;71.70;;;;;;5074753;28;20025;-91
2024/01/24 10:27:58;;;;;;;11.13;3.65;;;26.40;71.80;;;;;;5076005;28;20040;-84
2024/01/24 10:30:26;;;;;;;10.52;3.83;;;26.40;72.00;;;;;;5073707;28;20024;-83
2024/01/24 10:32:53;;;;;;;12.80;3.70;;;26.40;72.00;;;;;;5074297;28;20031;-86
2024/01/24 10:35:20;;;;;;;11.35;3.30;;;26.40;72.20;;;;;;5059870;28;20063;-84
2024/01/24 10:37:50;;;;;;;14.95;3.75;;;26.40;72.10;;;;;;5074444;28;20020;-88
2024/01/24 10:40:18;;;;;;;7.70;2.42;;;26.40;72.20;;;;;;5073298;28;20475;-89
2024/01/24 10:42:50;;;;;;;6.55;2.60;;;26.40;72.30;;;;;;5075477;28;20051;-90
2024/01/24 10:45:20;;;;;;;11.57;3.40;;;26.40;72.20;;;;;;5086481;28;20037;-89
2024/01/24 10:47:49;;;;;;;14.05;3.28;;;26.40;72.20;;;;;;5067268;28;20040;-91
2024/01/24 10:50:17;;;;;;;12.15;4.05;;;26.40;72.20;;;;;;5065421;28;20036;-89
2024/01/24 10:52:45;;;;;;;14.98;3.47;;;26.40;72.20;;;;;;5071323;28;20111;-81
2024/01/24 10:55:14;;;;;;;10.65;3.13;;;26.40;72.30;;;;;;5072354;28;20024;-82
2024/01/24 10:57:44;;;;;;;13.35;3.65;;;26.40;72.50;;;;;;5066730;28;20108;-86
2024/01/24 11:00:15;;;;;;;14.30;3.92;;;26.40;72.50;;;;;;5069077;28;20037;-87
2024/01/24 11:02:43;;;;;;;12.25;2.90;;;26.30;72.60;;;;;;5074440;28;20425;-82
2024/01/24 11:05:22;;;;;;;12.25;3.17;;;26.30;72.60;;;;;;5073028;28;20047;-87
2024/01/24 11:07:59;;;;;;;10.48;3.13;;;26.30;72.70;;;;;;5068376;28;20029;-83
2024/01/24 11:10:39;;;;;;;17.58;3.72;;;26.30;72.80;;;;;;5072457;28;20056;-86
2024/01/24 11:13:07;;;;;;;13.00;3.50;;;26.30;72.80;;;;;;5072727;28;20039;-82
2024/01/24 11:15:36;;;;;;;17.40;3.35;;;26.30;72.70;;;;;;5072875;28;21574;-82
2024/01/24 11:18:42;;;;;;;18.25;3.58;;;26.30;72.80;;;;;;5072333;28;20048;-82
2024/01/24 11:21:10;;;;;;;10.13;3.03;;;26.30;72.90;;;;;;5002482;28;20030;-83
2024/01/24 11:23:47;;;;;;;9.00;2.65;;;26.30;72.90;;;;;;5004535;28;20493;-87
2024/01/24 11:26:40;;;;;;;12.32;3.03;;;26.30;73.00;;;;;;5041558;28;20032;-81
2024/01/24 11:29:12;;;;;;;12.00;3.17;;;26.30;73.00;;;;;;5053765;28;20396;-81
2024/01/24 11:31:41;;;;;;;13.38;3.70;;;26.30;72.90;;;;;;5070006;28;20028;-82
2024/01/24 11:34:14;;;;;;;13.10;3.42;;;26.30;72.90;;;;;;5072813;28;20042;-81
2024/01/24 11:36:47;;;;;;;15.80;4.00;;;26.40;72.80;;;;;;5073280;28;20024;-82
2024/01/24 11:39:30;;;;;;;13.82;3.47;;;26.40;72.80;;;;;;5065407;28;20107;-82
2024/01/24 11:42:30;;;;;;;10.30;3.17;;;26.40;72.80;;;;;;5072280;28;20032;-82
2024/01/24 11:45:19;;;;;;;13.05;3.15;;;26.40;72.70;;;;;;5072375;28;20039;-81
2024/01/24 11:47:47;;;;;;;10.57;2.90;;;26.40;72.50;;;;;;5071884;28;20029;-82
2024/01/24 11:50:15;;;;;;;9.10;2.83;;;26.40;72.30;;;;;;5071397;28;20029;-82
2024/01/24 11:52:44;;;;;;;15.48;3.10;;;26.50;72.30;;;;;;5073597;28;20061;-81
2024/01/24 11:55:12;;;;;;;8.70;2.65;;;26.50;72.20;;;;;;5077283;28;20443;-81
2024/01/24 11:57:39;;;;;;;7.90;2.63;;;26.50;72.20;;;;;;5075788;28;20368;-81
2024/01/24 12:00:09;;;;;;;14.82;3.75;;;26.50;72.10;;;;;;5075602;28;20024;-82
2024/01/24 12:02:36;;;;;;;13.93;4.00;;;26.50;72.10;;;;;;5073109;28;20030;-82
2024/01/24 12:05:05;;;;;;;13.50;4.20;;;26.50;72.20;;;;;;5077369;28;20029;-82
2024/01/24 12:07:33;;;;;;;10.95;3.67;;;26.50;72.30;;;;;;5071366;28;20364;-82
2024/01/24 12:10:00;;;;;;;13.43;3.80;;;26.50;72.30;;;;;;5073004;28;20032;-81
2024/01/24 12:12:28;;;;;;;10.70;3.80;;;26.50;72.40;;;;;;5072475;28;20024;-81
2024/01/24 12:14:56;;;;;;;13.40;3.80;;;26.50;72.50;;;;;;5072949;28;20024;-82
2024/01/24 12:17:24;;;;;;;11.35;3.53;;;26.50;72.70;;;;;;5072609;28;20033;-89
2024/01/24 12:19:52;;;;;;;16.63;4.15;;;26.50;72.80;;;;;;5073066;28;20103;-89
2024/01/24 12:22:19;;;;;;;12.13;3.63;;;26.40;72.90;;;;;;5073020;28;20091;-88
2024/01/24 12:24:47;;;;;;;12.80;3.45;;;26.50;73.00;;;;;;5072016;28;20036;-81
2024/01/24 12:27:15;;;;;;;10.95;3.50;;;26.40;73.10;;;;;;5071273;28;20017;-81
2024/01/24 12:29:42;;;;;;;13.40;3.75;;;26.40;73.20;;;;;;5070609;28;20040;-84
2024/01/24 12:32:10;;;;;;;13.95;3.45;;;26.40;73.30;;;;;;5080387;28;20028;-81
2024/01/24 12:34:37;;;;;;;12.15;3.60;;;26.30;73.30;;;;;;5071975;28;20020;-82
2024/01/24 12:37:06;;;;;;;15.57;3.88;;;26.40;73.40;;;;;;5071969;28;20017;-82
2024/01/24 12:39:34;;;;;;;14.95;3.88;;;26.40;73.40;;;;;;5062198;28;20452;-81
2024/01/24 12:42:05;;;;;;;15.40;3.58;;;26.40;73.60;;;;;;5071210;28;20067;-81
2024/01/24 12:44:34;;;;;;;13.15;3.70;;;26.30;73.80;;;;;;5072849;28;20040;-81
2024/01/24 12:47:02;;;;;;;16.20;3.50;;;26.30;73.80;;;;;;5071134;28;20033;-81